Bangalore, India

10:26 PM IST on September 05, 2015 (GMT +0530)
Akshayanagar East, near DLF New Town, Begur | | Change Station
CLOSE
Current Station
Personal Weather Station
Location: Bengaluru, KARNATAKA
Elevation: 2992 ft
Nearby Weather Stations

Elev 2992 ft 12.87 °N, 77.62 °E | Updated 2 seconds ago

Partly Cloudy
Partly Cloudy
74.1 °F
Feels Like 74 °F
N
0.0
Wind Variable Wind from ESE
Gusts 0.0 mph

Today
High -- | Low -- °F
--% Chance of Precip.
Yesterday
High -- | Low -- °F
Precip. -- in
6:08 AM 6:28 PM
Waning Gibbous, 47% visible
Pressure 30.06 in
Visibility 3.7 miles
Clouds Few 1200 ft
Few 2500 ft
Heat Index 74 °F
Dew Point 68 °F
Humidity 82%
Rainfall 0.05 in
Snow Depth Not available.
UV 0.0 out of 12
Pollen Not available.
Air Quality Not available.
Flu Activity Not available.
METAR VOBL 051630Z 15004KT 6000 FEW012 FEW025CB 28/28 Q1018 NOSIG RMK CB SE
Pressure 30.06 in
Visibility 3.7 miles
Clouds Few 1200 ft
Few 2500 ft
Heat Index 74 °F
Dew Point 68 °F
Humidity 82%
Rainfall 0.05 in
Snow Depth Not available.
UV 0.0 out of 12
Pollen Not available.
Air Quality Not available.
Flu Activity Not available.
METAR VOBL 051630Z 15004KT 6000 FEW012 FEW025CB 28/28 Q1018 NOSIG RMK CB SE

10-Day Weather Forecast

×

Almanac

Astronomy

Sep. 05, 2015 Rise Set
Actual Time
Civil Twilight
Nautical Twilight
Astronomical Twilight
Moon
Length of Visible Light
Length of Day
Tomorrow will be .
, % of the Moon is Illuminated

Today's Extremes

Country Highs Country Lows

Community

WunderPhotos

Upload Photos

1,852,498 photos uploaded!

WunderBlogs® & News

Nearby

Air Quality

  Air Quality AQ Index Pollutant
Not available.

Snow Depth

Station Depth Elevation

Earthquake Activity

City Distance Mag. Time & Date
Minimum magnitude displayed is 2.5.

Coastal Water Temperatures

Place Temperature

Stations

Nearby Weather Stations

Station Location Temp. Windchill Dew Point Humidity Wind Precip. Elev Updated Type